sensor_id;sensor_type;location;lat;lon;timestamp;P1;durP1;ratioP1;P2;durP2;ratioP2
289;SDS011;13193;48.874;9.086;2022-11-15T00:00:47;12.60;;;3.63;;
289;SDS011;13193;48.874;9.086;2022-11-15T00:03:14;5.70;;;2.20;;
289;SDS011;13193;48.874;9.086;2022-11-15T00:05:41;14.57;;;3.20;;
289;SDS011;13193;48.874;9.086;2022-11-15T00:08:06;7.40;;;2.37;;
289;SDS011;13193;48.874;9.086;2022-11-15T00:10:32;4.83;;;2.57;;
289;SDS011;13193;48.874;9.086;2022-11-15T00:12:58;6.60;;;2.73;;
289;SDS011;13193;48.874;9.086;2022-11-15T00:15:23;7.70;;;2.30;;
289;SDS011;13193;48.874;9.086;2022-11-15T00:17:49;10.43;;;2.30;;
289;SDS011;13193;48.874;9.086;2022-11-15T00:20:16;5.83;;;2.27;;
289;SDS011;13193;48.874;9.086;2022-11-15T00:22:42;4.63;;;2.07;;
289;SDS011;13193;48.874;9.086;2022-11-15T00:25:08;5.40;;;2.00;;
289;SDS011;13193;48.874;9.086;2022-11-15T00:27:33;4.90;;;2.13;;
289;SDS011;13193;48.874;9.086;2022-11-15T00:30:00;6.40;;;2.40;;
289;SDS011;13193;48.874;9.086;2022-11-15T00:32:25;6.53;;;2.57;;
289;SDS011;13193;48.874;9.086;2022-11-15T00:34:51;7.03;;;2.20;;
289;SDS011;13193;48.874;9.086;2022-11-15T00:37:16;5.87;;;2.70;;
289;SDS011;13193;48.874;9.086;2022-11-15T00:39:42;6.30;;;2.40;;
289;SDS011;13193;48.874;9.086;2022-11-15T00:42:08;5.40;;;2.10;;
289;SDS011;13193;48.874;9.086;2022-11-15T00:44:33;4.60;;;1.57;;
289;SDS011;13193;48.874;9.086;2022-11-15T00:46:59;4.47;;;2.57;;
289;SDS011;13193;48.874;9.086;2022-11-15T00:49:24;6.87;;;2.30;;
289;SDS011;13193;48.874;9.086;2022-11-15T00:51:50;5.10;;;2.37;;
289;SDS011;13193;48.874;9.086;2022-11-15T00:54:15;2.80;;;1.93;;
289;SDS011;13193;48.874;9.086;2022-11-15T00:56:41;3.40;;;2.10;;
289;SDS011;13193;48.874;9.086;2022-11-15T00:59:06;3.53;;;1.80;;
289;SDS011;13193;48.874;9.086;2022-11-15T01:01:32;6.90;;;2.33;;
289;SDS011;13193;48.874;9.086;2022-11-15T01:03:58;6.00;;;2.33;;
289;SDS011;13193;48.874;9.086;2022-11-15T01:06:23;6.00;;;2.40;;
289;SDS011;13193;48.874;9.086;2022-11-15T01:08:49;5.00;;;2.03;;
289;SDS011;13193;48.874;9.086;2022-11-15T01:11:14;3.70;;;1.73;;
289;SDS011;13193;48.874;9.086;2022-11-15T01:13:40;5.70;;;2.73;;
289;SDS011;13193;48.874;9.086;2022-11-15T01:16:09;4.00;;;2.40;;
289;SDS011;13193;48.874;9.086;2022-11-15T01:18:43;4.70;;;1.90;;
289;SDS011;13193;48.874;9.086;2022-11-15T01:21:10;4.50;;;2.60;;
289;SDS011;13193;48.874;9.086;2022-11-15T01:23:38;6.03;;;2.23;;
289;SDS011;13193;48.874;9.086;2022-11-15T01:26:06;9.93;;;2.77;;
289;SDS011;13193;48.874;9.086;2022-11-15T01:28:35;5.80;;;2.63;;
289;SDS011;13193;48.874;9.086;2022-11-15T01:31:02;3.10;;;1.60;;
289;SDS011;13193;48.874;9.086;2022-11-15T01:33:29;11.40;;;3.13;;
289;SDS011;13193;48.874;9.086;2022-11-15T01:35:55;5.87;;;2.40;;
289;SDS011;13193;48.874;9.086;2022-11-15T01:38:21;8.60;;;2.53;;
289;SDS011;13193;48.874;9.086;2022-11-15T01:40:47;6.23;;;2.90;;
289;SDS011;13193;48.874;9.086;2022-11-15T01:45:45;6.70;;;2.50;;
289;SDS011;13193;48.874;9.086;2022-11-15T01:48:15;5.60;;;2.53;;
289;SDS011;13193;48.874;9.086;2022-11-15T01:50:40;9.30;;;3.23;;
289;SDS011;13193;48.874;9.086;2022-11-15T01:53:06;5.00;;;2.30;;
289;SDS011;13193;48.874;9.086;2022-11-15T01:55:32;5.83;;;1.93;;
289;SDS011;13193;48.874;9.086;2022-11-15T01:57:59;9.13;;;2.60;;
289;SDS011;13193;48.874;9.086;2022-11-15T02:00:27;6.60;;;2.50;;
289;SDS011;13193;48.874;9.086;2022-11-15T02:02:54;10.27;;;3.00;;
289;SDS011;13193;48.874;9.086;2022-11-15T02:05:20;4.43;;;2.37;;
289;SDS011;13193;48.874;9.086;2022-11-15T02:07:45;5.80;;;2.90;;
289;SDS011;13193;48.874;9.086;2022-11-15T02:10:14;6.23;;;3.10;;
289;SDS011;13193;48.874;9.086;2022-11-15T02:12:43;15.30;;;2.90;;
289;SDS011;13193;48.874;9.086;2022-11-15T02:15:10;6.40;;;3.00;;
289;SDS011;13193;48.874;9.086;2022-11-15T02:36:47;3.60;;;2.20;;
289;SDS011;13193;48.874;9.086;2022-11-15T02:39:31;4.70;;;2.47;;
289;SDS011;13193;48.874;9.086;2022-11-15T02:42:19;4.37;;;2.50;;
289;SDS011;13193;48.874;9.086;2022-11-15T02:45:09;8.87;;;2.43;;
289;SDS011;13193;48.874;9.086;2022-11-15T02:47:42;6.77;;;2.80;;
289;SDS011;13193;48.874;9.086;2022-11-15T02:50:11;7.53;;;2.60;;
289;SDS011;13193;48.874;9.086;2022-11-15T02:52:40;5.50;;;3.00;;
289;SDS011;13193;48.874;9.086;2022-11-15T02:55:24;4.97;;;2.43;;
289;SDS011;13193;48.874;9.086;2022-11-15T03:00:54;4.83;;;2.23;;
289;SDS011;13193;48.874;9.086;2022-11-15T03:09:06;6.20;;;2.47;;
289;SDS011;13193;48.874;9.086;2022-11-15T03:11:50;5.40;;;2.57;;
289;SDS011;13193;48.874;9.086;2022-11-15T03:14:25;6.17;;;2.40;;
289;SDS011;13193;48.874;9.086;2022-11-15T03:19:46;6.37;;;2.40;;
289;SDS011;13193;48.874;9.086;2022-11-15T03:22:15;5.23;;;2.03;;
289;SDS011;13193;48.874;9.086;2022-11-15T03:24:45;4.33;;;2.50;;
289;SDS011;13193;48.874;9.086;2022-11-15T03:27:15;5.43;;;2.33;;
289;SDS011;13193;48.874;9.086;2022-11-15T03:29:46;7.30;;;3.00;;
289;SDS011;13193;48.874;9.086;2022-11-15T03:32:19;9.67;;;3.00;;
289;SDS011;13193;48.874;9.086;2022-11-15T03:34:58;6.80;;;2.57;;
289;SDS011;13193;48.874;9.086;2022-11-15T03:37:34;5.97;;;2.70;;
289;SDS011;13193;48.874;9.086;2022-11-15T03:40:06;8.20;;;3.17;;
289;SDS011;13193;48.874;9.086;2022-11-15T03:42:42;10.77;;;3.60;;
289;SDS011;13193;48.874;9.086;2022-11-15T03:45:14;4.73;;;3.10;;
289;SDS011;13193;48.874;9.086;2022-11-15T03:48:03;7.30;;;3.00;;
289;SDS011;13193;48.874;9.086;2022-11-15T03:50:35;6.47;;;2.67;;
289;SDS011;13193;48.874;9.086;2022-11-15T03:53:01;8.10;;;2.40;;
289;SDS011;13193;48.874;9.086;2022-11-15T03:55:27;14.13;;;3.40;;
289;SDS011;13193;48.874;9.086;2022-11-15T03:57:53;5.80;;;2.90;;
289;SDS011;13193;48.874;9.086;2022-11-15T04:00:22;6.97;;;3.00;;
289;SDS011;13193;48.874;9.086;2022-11-15T04:02:48;7.70;;;3.97;;
289;SDS011;13193;48.874;9.086;2022-11-15T04:05:13;6.20;;;3.13;;
289;SDS011;13193;48.874;9.086;2022-11-15T04:07:39;8.20;;;3.57;;
289;SDS011;13193;48.874;9.086;2022-11-15T04:10:04;3.87;;;2.30;;
289;SDS011;13193;48.874;9.086;2022-11-15T04:12:35;6.17;;;3.60;;
289;SDS011;13193;48.874;9.086;2022-11-15T04:20:18;7.37;;;3.30;;
289;SDS011;13193;48.874;9.086;2022-11-15T04:23:17;4.80;;;3.03;;
289;SDS011;13193;48.874;9.086;2022-11-15T04:26:02;5.50;;;3.10;;
289;SDS011;13193;48.874;9.086;2022-11-15T04:28:30;8.90;;;3.00;;
289;SDS011;13193;48.874;9.086;2022-11-15T04:30:55;11.00;;;4.33;;
289;SDS011;13193;48.874;9.086;2022-11-15T04:33:21;6.80;;;3.17;;
289;SDS011;13193;48.874;9.086;2022-11-15T04:35:47;5.57;;;3.00;;
289;SDS011;13193;48.874;9.086;2022-11-15T04:38:33;8.00;;;3.70;;
289;SDS011;13193;48.874;9.086;2022-11-15T04:41:00;7.40;;;3.50;;
289;SDS011;13193;48.874;9.086;2022-11-15T04:43:38;4.67;;;3.00;;
289;SDS011;13193;48.874;9.086;2022-11-15T04:46:04;6.93;;;3.53;;
289;SDS011;13193;48.874;9.086;2022-11-15T04:48:29;6.47;;;2.50;;
289;SDS011;13193;48.874;9.086;2022-11-15T04:50:55;7.53;;;3.37;;
289;SDS011;13193;48.874;9.086;2022-11-15T04:53:21;6.00;;;2.53;;
289;SDS011;13193;48.874;9.086;2022-11-15T04:55:46;5.27;;;3.03;;
289;SDS011;13193;48.874;9.086;2022-11-15T04:58:12;4.93;;;3.13;;
289;SDS011;13193;48.874;9.086;2022-11-15T05:00:37;5.90;;;3.10;;
289;SDS011;13193;48.874;9.086;2022-11-15T05:03:04;5.93;;;3.00;;
289;SDS011;13193;48.874;9.086;2022-11-15T05:05:49;11.87;;;3.47;;
289;SDS011;13193;48.874;9.086;2022-11-15T05:08:14;5.20;;;3.43;;
289;SDS011;13193;48.874;9.086;2022-11-15T05:10:40;9.40;;;3.90;;
289;SDS011;13193;48.874;9.086;2022-11-15T05:13:05;9.30;;;3.40;;
289;SDS011;13193;48.874;9.086;2022-11-15T05:15:31;9.70;;;3.10;;
289;SDS011;13193;48.874;9.086;2022-11-15T05:17:57;9.70;;;3.33;;
289;SDS011;13193;48.874;9.086;2022-11-15T05:20:24;7.47;;;3.23;;
289;SDS011;13193;48.874;9.086;2022-11-15T05:22:49;5.97;;;2.77;;
289;SDS011;13193;48.874;9.086;2022-11-15T05:25:15;6.03;;;3.33;;
289;SDS011;13193;48.874;9.086;2022-11-15T05:27:41;7.23;;;3.10;;
289;SDS011;13193;48.874;9.086;2022-11-15T05:30:06;11.93;;;5.20;;
289;SDS011;13193;48.874;9.086;2022-11-15T05:32:32;17.00;;;7.87;;
289;SDS011;13193;48.874;9.086;2022-11-15T05:34:58;7.40;;;3.70;;
289;SDS011;13193;48.874;9.086;2022-11-15T05:37:23;10.63;;;5.17;;
289;SDS011;13193;48.874;9.086;2022-11-15T05:39:49;13.30;;;3.53;;
289;SDS011;13193;48.874;9.086;2022-11-15T05:42:15;5.60;;;3.10;;
289;SDS011;13193;48.874;9.086;2022-11-15T05:44:43;9.17;;;3.30;;
289;SDS011;13193;48.874;9.086;2022-11-15T05:47:12;9.77;;;3.77;;
289;SDS011;13193;48.874;9.086;2022-11-15T05:49:41;11.00;;;5.17;;
289;SDS011;13193;48.874;9.086;2022-11-15T05:52:09;8.33;;;4.27;;
289;SDS011;13193;48.874;9.086;2022-11-15T05:54:38;14.33;;;4.90;;
289;SDS011;13193;48.874;9.086;2022-11-15T05:57:04;6.40;;;3.10;;
289;SDS011;13193;48.874;9.086;2022-11-15T05:59:30;7.30;;;3.40;;
289;SDS011;13193;48.874;9.086;2022-11-15T06:01:57;5.63;;;3.20;;
289;SDS011;13193;48.874;9.086;2022-11-15T06:04:23;8.17;;;4.00;;
289;SDS011;13193;48.874;9.086;2022-11-15T06:06:49;6.23;;;3.23;;
289;SDS011;13193;48.874;9.086;2022-11-15T06:09:15;9.93;;;4.20;;
289;SDS011;13193;48.874;9.086;2022-11-15T06:11:41;6.43;;;3.60;;
289;SDS011;13193;48.874;9.086;2022-11-15T06:14:06;8.03;;;4.63;;
289;SDS011;13193;48.874;9.086;2022-11-15T06:16:32;12.33;;;3.93;;
289;SDS011;13193;48.874;9.086;2022-11-15T06:18:57;6.70;;;3.60;;
289;SDS011;13193;48.874;9.086;2022-11-15T06:21:23;6.67;;;3.00;;
289;SDS011;13193;48.874;9.086;2022-11-15T06:23:49;5.83;;;2.60;;
289;SDS011;13193;48.874;9.086;2022-11-15T06:26:14;8.27;;;3.87;;
289;SDS011;13193;48.874;9.086;2022-11-15T06:28:40;6.93;;;3.67;;
289;SDS011;13193;48.874;9.086;2022-11-15T06:31:06;13.80;;;4.53;;
289;SDS011;13193;48.874;9.086;2022-11-15T06:33:36;12.93;;;5.50;;
289;SDS011;13193;48.874;9.086;2022-11-15T06:36:02;14.63;;;7.33;;
289;SDS011;13193;48.874;9.086;2022-11-15T06:38:30;14.10;;;7.37;;
289;SDS011;13193;48.874;9.086;2022-11-15T06:41:00;11.53;;;6.50;;
289;SDS011;13193;48.874;9.086;2022-11-15T06:43:31;15.23;;;6.60;;
289;SDS011;13193;48.874;9.086;2022-11-15T06:46:00;15.80;;;7.53;;
289;SDS011;13193;48.874;9.086;2022-11-15T06:48:27;13.50;;;7.70;;
289;SDS011;13193;48.874;9.086;2022-11-15T06:50:54;19.77;;;8.33;;
289;SDS011;13193;48.874;9.086;2022-11-15T06:53:21;15.83;;;7.67;;
289;SDS011;13193;48.874;9.086;2022-11-15T06:55:47;22.13;;;9.23;;
289;SDS011;13193;48.874;9.086;2022-11-15T06:58:13;18.10;;;9.10;;
289;SDS011;13193;48.874;9.086;2022-11-15T07:00:38;13.97;;;8.40;;
289;SDS011;13193;48.874;9.086;2022-11-15T07:03:04;14.83;;;7.53;;
289;SDS011;13193;48.874;9.086;2022-11-15T07:05:30;21.97;;;9.17;;
289;SDS011;13193;48.874;9.086;2022-11-15T07:07:56;17.63;;;8.40;;
289;SDS011;13193;48.874;9.086;2022-11-15T07:10:22;17.30;;;10.63;;
289;SDS011;13193;48.874;9.086;2022-11-15T07:12:49;16.60;;;8.10;;
289;SDS011;13193;48.874;9.086;2022-11-15T07:15:16;9.93;;;5.07;;
289;SDS011;13193;48.874;9.086;2022-11-15T07:17:43;12.10;;;5.50;;
289;SDS011;13193;48.874;9.086;2022-11-15T07:20:09;9.30;;;3.67;;
289;SDS011;13193;48.874;9.086;2022-11-15T07:22:35;12.80;;;4.30;;
289;SDS011;13193;48.874;9.086;2022-11-15T07:25:00;22.63;;;4.17;;
289;SDS011;13193;48.874;9.086;2022-11-15T07:27:26;8.83;;;3.90;;
289;SDS011;13193;48.874;9.086;2022-11-15T07:29:52;9.03;;;2.90;;
289;SDS011;13193;48.874;9.086;2022-11-15T07:32:17;7.03;;;3.40;;
289;SDS011;13193;48.874;9.086;2022-11-15T07:34:43;9.70;;;3.70;;
289;SDS011;13193;48.874;9.086;2022-11-15T07:37:10;9.63;;;3.77;;
289;SDS011;13193;48.874;9.086;2022-11-15T07:39:35;10.33;;;2.90;;
289;SDS011;13193;48.874;9.086;2022-11-15T07:42:01;7.70;;;3.57;;
289;SDS011;13193;48.874;9.086;2022-11-15T07:44:45;9.87;;;3.37;;
289;SDS011;13193;48.874;9.086;2022-11-15T07:47:11;6.60;;;3.23;;
289;SDS011;13193;48.874;9.086;2022-11-15T07:49:37;7.10;;;3.40;;
289;SDS011;13193;48.874;9.086;2022-11-15T07:52:02;5.90;;;3.03;;
289;SDS011;13193;48.874;9.086;2022-11-15T07:54:28;6.53;;;2.43;;
289;SDS011;13193;48.874;9.086;2022-11-15T07:56:53;4.80;;;2.67;;
289;SDS011;13193;48.874;9.086;2022-11-15T07:59:19;7.03;;;2.77;;
289;SDS011;13193;48.874;9.086;2022-11-15T08:01:45;4.70;;;2.43;;
289;SDS011;13193;48.874;9.086;2022-11-15T08:04:10;8.17;;;2.67;;
289;SDS011;13193;48.874;9.086;2022-11-15T08:06:36;4.43;;;1.60;;
289;SDS011;13193;48.874;9.086;2022-11-15T08:09:02;2.90;;;2.00;;
289;SDS011;13193;48.874;9.086;2022-11-15T08:11:28;4.00;;;1.83;;
289;SDS011;13193;48.874;9.086;2022-11-15T08:13:54;7.57;;;2.60;;
289;SDS011;13193;48.874;9.086;2022-11-15T08:16:19;6.93;;;3.00;;
289;SDS011;13193;48.874;9.086;2022-11-15T08:18:45;7.27;;;3.10;;
289;SDS011;13193;48.874;9.086;2022-11-15T08:21:12;6.23;;;1.93;;
289;SDS011;13193;48.874;9.086;2022-11-15T08:23:41;10.70;;;3.17;;
289;SDS011;13193;48.874;9.086;2022-11-15T08:26:08;4.97;;;2.53;;
289;SDS011;13193;48.874;9.086;2022-11-15T08:28:33;6.90;;;2.57;;
289;SDS011;13193;48.874;9.086;2022-11-15T08:30:59;6.13;;;2.53;;
289;SDS011;13193;48.874;9.086;2022-11-15T08:33:25;5.33;;;2.70;;
289;SDS011;13193;48.874;9.086;2022-11-15T08:35:51;8.67;;;3.53;;
289;SDS011;13193;48.874;9.086;2022-11-15T08:38:16;6.47;;;3.07;;
289;SDS011;13193;48.874;9.086;2022-11-15T08:40:42;4.97;;;2.90;;
289;SDS011;13193;48.874;9.086;2022-11-15T08:43:08;5.33;;;3.30;;
289;SDS011;13193;48.874;9.086;2022-11-15T08:45:34;8.03;;;3.60;;
289;SDS011;13193;48.874;9.086;2022-11-15T08:48:01;4.70;;;2.87;;
289;SDS011;13193;48.874;9.086;2022-11-15T08:50:27;4.40;;;2.23;;
289;SDS011;13193;48.874;9.086;2022-11-15T08:52:53;4.33;;;2.10;;
289;SDS011;13193;48.874;9.086;2022-11-15T08:55:18;5.13;;;2.10;;
289;SDS011;13193;48.874;9.086;2022-11-15T08:57:44;4.57;;;2.13;;
289;SDS011;13193;48.874;9.086;2022-11-15T09:00:10;3.47;;;1.80;;
289;SDS011;13193;48.874;9.086;2022-11-15T09:02:38;8.13;;;2.30;;
289;SDS011;13193;48.874;9.086;2022-11-15T09:05:05;4.40;;;2.20;;
289;SDS011;13193;48.874;9.086;2022-11-15T09:07:31;4.73;;;1.87;;
289;SDS011;13193;48.874;9.086;2022-11-15T09:09:57;6.77;;;2.67;;
289;SDS011;13193;48.874;9.086;2022-11-15T09:12:23;3.23;;;1.93;;
289;SDS011;13193;48.874;9.086;2022-11-15T09:14:48;10.90;;;4.57;;
289;SDS011;13193;48.874;9.086;2022-11-15T09:17:14;10.20;;;4.60;;
289;SDS011;13193;48.874;9.086;2022-11-15T09:19:40;7.47;;;3.50;;
289;SDS011;13193;48.874;9.086;2022-11-15T09:22:06;15.70;;;4.20;;
289;SDS011;13193;48.874;9.086;2022-11-15T09:24:32;8.27;;;3.10;;
289;SDS011;13193;48.874;9.086;2022-11-15T09:26:59;6.63;;;2.90;;
289;SDS011;13193;48.874;9.086;2022-11-15T09:29:24;7.00;;;3.03;;
289;SDS011;13193;48.874;9.086;2022-11-15T09:31:51;6.90;;;2.80;;
289;SDS011;13193;48.874;9.086;2022-11-15T09:34:17;3.47;;;1.87;;
289;SDS011;13193;48.874;9.086;2022-11-15T09:36:43;7.20;;;3.07;;
289;SDS011;13193;48.874;9.086;2022-11-15T09:39:09;8.70;;;3.10;;
289;SDS011;13193;48.874;9.086;2022-11-15T09:41:38;6.07;;;2.33;;
289;SDS011;13193;48.874;9.086;2022-11-15T09:44:26;11.63;;;2.47;;
289;SDS011;13193;48.874;9.086;2022-11-15T09:49:40;6.93;;;2.60;;
289;SDS011;13193;48.874;9.086;2022-11-15T09:52:06;8.57;;;2.10;;
289;SDS011;13193;48.874;9.086;2022-11-15T09:54:37;3.83;;;2.00;;
289;SDS011;13193;48.874;9.086;2022-11-15T09:57:16;3.67;;;1.83;;
289;SDS011;13193;48.874;9.086;2022-11-15T10:05:16;5.30;;;2.90;;
289;SDS011;13193;48.874;9.086;2022-11-15T10:10:49;7.43;;;3.30;;
289;SDS011;13193;48.874;9.086;2022-11-15T10:13:25;5.17;;;1.90;;
289;SDS011;13193;48.874;9.086;2022-11-15T10:15:54;13.03;;;4.33;;
289;SDS011;13193;48.874;9.086;2022-11-15T10:21:17;8.63;;;4.70;;
289;SDS011;13193;48.874;9.086;2022-11-15T10:23:48;9.23;;;4.13;;
289;SDS011;13193;48.874;9.086;2022-11-15T10:26:16;13.57;;;5.20;;
289;SDS011;13193;48.874;9.086;2022-11-15T10:28:42;21.00;;;5.10;;
289;SDS011;13193;48.874;9.086;2022-11-15T10:31:27;11.97;;;5.70;;
289;SDS011;13193;48.874;9.086;2022-11-15T10:34:10;12.20;;;5.00;;
289;SDS011;13193;48.874;9.086;2022-11-15T10:36:45;7.17;;;4.67;;
289;SDS011;13193;48.874;9.086;2022-11-15T10:39:12;15.23;;;4.90;;
289;SDS011;13193;48.874;9.086;2022-11-15T10:41:40;9.10;;;4.30;;
289;SDS011;13193;48.874;9.086;2022-11-15T10:46:37;7.40;;;2.83;;
289;SDS011;13193;48.874;9.086;2022-11-15T10:51:47;5.47;;;2.30;;
289;SDS011;13193;48.874;9.086;2022-11-15T10:54:22;4.50;;;2.27;;
289;SDS011;13193;48.874;9.086;2022-11-15T10:57:18;4.50;;;2.23;;
289;SDS011;13193;48.874;9.086;2022-11-15T10:59:57;5.57;;;2.63;;
289;SDS011;13193;48.874;9.086;2022-11-15T11:02:36;5.77;;;2.67;;
289;SDS011;13193;48.874;9.086;2022-11-15T11:05:27;4.93;;;2.40;;
289;SDS011;13193;48.874;9.086;2022-11-15T11:10:35;6.23;;;2.67;;
289;SDS011;13193;48.874;9.086;2022-11-15T11:15:52;5.77;;;2.60;;
289;SDS011;13193;48.874;9.086;2022-11-15T11:21:13;6.77;;;2.93;;
289;SDS011;13193;48.874;9.086;2022-11-15T11:23:53;11.03;;;2.90;;
289;SDS011;13193;48.874;9.086;2022-11-15T11:27:02;14.43;;;3.80;;
289;SDS011;13193;48.874;9.086;2022-11-15T11:30:03;7.47;;;3.30;;
289;SDS011;13193;48.874;9.086;2022-11-15T11:32:49;8.13;;;3.40;;
289;SDS011;13193;48.874;9.086;2022-11-15T11:41:04;7.43;;;3.03;;
289;SDS011;13193;48.874;9.086;2022-11-15T11:44:18;17.03;;;3.10;;
289;SDS011;13193;48.874;9.086;2022-11-15T11:46:51;6.87;;;3.07;;
289;SDS011;13193;48.874;9.086;2022-11-15T11:57:46;12.33;;;5.93;;
289;SDS011;13193;48.874;9.086;2022-11-15T12:00:33;14.70;;;5.20;;
289;SDS011;13193;48.874;9.086;2022-11-15T12:03:09;12.17;;;5.40;;
289;SDS011;13193;48.874;9.086;2022-11-15T12:05:57;9.00;;;5.00;;
289;SDS011;13193;48.874;9.086;2022-11-15T12:08:40;20.90;;;5.97;;
289;SDS011;13193;48.874;9.086;2022-11-15T12:11:35;11.13;;;5.77;;
289;SDS011;13193;48.874;9.086;2022-11-15T12:14:20;17.70;;;5.37;;
289;SDS011;13193;48.874;9.086;2022-11-15T12:16:50;13.87;;;5.53;;
289;SDS011;13193;48.874;9.086;2022-11-15T12:19:16;21.97;;;7.40;;
289;SDS011;13193;48.874;9.086;2022-11-15T12:30:00;11.00;;;4.77;;
289;SDS011;13193;48.874;9.086;2022-11-15T12:32:39;15.10;;;5.70;;
289;SDS011;13193;48.874;9.086;2022-11-15T12:35:21;12.93;;;5.50;;
289;SDS011;13193;48.874;9.086;2022-11-15T12:38:14;14.30;;;5.00;;
289;SDS011;13193;48.874;9.086;2022-11-15T12:41:19;12.53;;;4.63;;
289;SDS011;13193;48.874;9.086;2022-11-15T12:43:47;13.90;;;6.10;;
289;SDS011;13193;48.874;9.086;2022-11-15T12:46:19;8.77;;;4.40;;
289;SDS011;13193;48.874;9.086;2022-11-15T12:48:47;11.83;;;4.90;;
289;SDS011;13193;48.874;9.086;2022-11-15T12:51:15;11.63;;;4.40;;
289;SDS011;13193;48.874;9.086;2022-11-15T12:53:42;18.77;;;5.53;;
289;SDS011;13193;48.874;9.086;2022-11-15T12:58:47;26.50;;;5.60;;
289;SDS011;13193;48.874;9.086;2022-11-15T13:06:50;18.43;;;5.23;;
289;SDS011;13193;48.874;9.086;2022-11-15T13:11:59;10.53;;;5.57;;
289;SDS011;13193;48.874;9.086;2022-11-15T13:14:56;10.43;;;5.00;;
289;SDS011;13193;48.874;9.086;2022-11-15T13:17:28;18.60;;;5.30;;
289;SDS011;13193;48.874;9.086;2022-11-15T13:22:24;10.60;;;5.13;;
289;SDS011;13193;48.874;9.086;2022-11-15T13:25:16;25.33;;;6.20;;
289;SDS011;13193;48.874;9.086;2022-11-15T13:27:47;11.60;;;5.07;;
289;SDS011;13193;48.874;9.086;2022-11-15T13:30:16;19.60;;;5.60;;
289;SDS011;13193;48.874;9.086;2022-11-15T13:32:46;14.13;;;5.60;;
289;SDS011;13193;48.874;9.086;2022-11-15T13:35:26;21.77;;;6.00;;
289;SDS011;13193;48.874;9.086;2022-11-15T13:37:54;11.63;;;5.50;;
289;SDS011;13193;48.874;9.086;2022-11-15T13:40:27;21.57;;;6.33;;
289;SDS011;13193;48.874;9.086;2022-11-15T13:42:58;13.53;;;5.07;;
289;SDS011;13193;48.874;9.086;2022-11-15T13:45:24;12.07;;;6.20;;
289;SDS011;13193;48.874;9.086;2022-11-15T13:47:56;13.43;;;6.50;;
289;SDS011;13193;48.874;9.086;2022-11-15T13:50:25;19.47;;;6.27;;
289;SDS011;13193;48.874;9.086;2022-11-15T13:52:57;12.10;;;5.27;;
289;SDS011;13193;48.874;9.086;2022-11-15T13:55:27;12.80;;;5.23;;
289;SDS011;13193;48.874;9.086;2022-11-15T13:57:58;10.70;;;5.47;;
289;SDS011;13193;48.874;9.086;2022-11-15T14:00:33;16.33;;;6.07;;
289;SDS011;13193;48.874;9.086;2022-11-15T14:05:44;15.20;;;6.00;;
289;SDS011;13193;48.874;9.086;2022-11-15T14:08:27;10.60;;;5.30;;
289;SDS011;13193;48.874;9.086;2022-11-15T14:14:08;8.80;;;3.50;;
289;SDS011;13193;48.874;9.086;2022-11-15T14:19:06;9.63;;;3.37;;
289;SDS011;13193;48.874;9.086;2022-11-15T14:21:35;11.50;;;3.50;;
289;SDS011;13193;48.874;9.086;2022-11-15T14:24:14;6.43;;;3.40;;
289;SDS011;13193;48.874;9.086;2022-11-15T14:26:45;7.17;;;2.63;;
289;SDS011;13193;48.874;9.086;2022-11-15T14:29:26;9.27;;;3.40;;
289;SDS011;13193;48.874;9.086;2022-11-15T14:31:55;6.23;;;2.80;;
289;SDS011;13193;48.874;9.086;2022-11-15T14:34:37;8.43;;;3.07;;
289;SDS011;13193;48.874;9.086;2022-11-15T14:37:03;8.40;;;3.20;;
289;SDS011;13193;48.874;9.086;2022-11-15T14:39:28;7.40;;;2.60;;
289;SDS011;13193;48.874;9.086;2022-11-15T14:41:54;6.30;;;2.90;;
289;SDS011;13193;48.874;9.086;2022-11-15T14:44:19;5.90;;;2.40;;
289;SDS011;13193;48.874;9.086;2022-11-15T14:46:46;6.27;;;2.90;;
289;SDS011;13193;48.874;9.086;2022-11-15T14:49:13;5.80;;;2.40;;
289;SDS011;13193;48.874;9.086;2022-11-15T14:51:40;16.40;;;2.67;;
289;SDS011;13193;48.874;9.086;2022-11-15T14:54:08;7.67;;;2.70;;
289;SDS011;13193;48.874;9.086;2022-11-15T14:56:35;11.13;;;3.83;;
289;SDS011;13193;48.874;9.086;2022-11-15T14:59:01;7.30;;;3.30;;
289;SDS011;13193;48.874;9.086;2022-11-15T15:01:26;8.30;;;3.07;;
289;SDS011;13193;48.874;9.086;2022-11-15T15:03:53;6.77;;;3.17;;
289;SDS011;13193;48.874;9.086;2022-11-15T15:06:23;10.37;;;3.60;;
289;SDS011;13193;48.874;9.086;2022-11-15T15:08:49;5.57;;;3.30;;
289;SDS011;13193;48.874;9.086;2022-11-15T15:11:33;8.30;;;3.90;;
289;SDS011;13193;48.874;9.086;2022-11-15T15:13:59;10.47;;;3.70;;
289;SDS011;13193;48.874;9.086;2022-11-15T15:16:26;9.30;;;3.27;;
289;SDS011;13193;48.874;9.086;2022-11-15T15:18:52;9.23;;;3.93;;
289;SDS011;13193;48.874;9.086;2022-11-15T15:21:20;7.57;;;3.70;;
289;SDS011;13193;48.874;9.086;2022-11-15T15:23:47;14.33;;;4.60;;
289;SDS011;13193;48.874;9.086;2022-11-15T15:26:13;15.70;;;4.60;;
289;SDS011;13193;48.874;9.086;2022-11-15T15:28:38;10.10;;;4.60;;
289;SDS011;13193;48.874;9.086;2022-11-15T15:31:04;17.03;;;4.77;;
289;SDS011;13193;48.874;9.086;2022-11-15T15:33:30;14.60;;;4.23;;
289;SDS011;13193;48.874;9.086;2022-11-15T15:35:57;6.07;;;4.70;;
289;SDS011;13193;48.874;9.086;2022-11-15T15:38:23;10.90;;;3.40;;
289;SDS011;13193;48.874;9.086;2022-11-15T15:40:48;12.07;;;4.77;;
289;SDS011;13193;48.874;9.086;2022-11-15T15:43:14;6.63;;;4.10;;
289;SDS011;13193;48.874;9.086;2022-11-15T15:45:40;14.63;;;5.20;;
289;SDS011;13193;48.874;9.086;2022-11-15T15:48:13;17.97;;;4.60;;
289;SDS011;13193;48.874;9.086;2022-11-15T15:50:41;8.80;;;4.40;;
289;SDS011;13193;48.874;9.086;2022-11-15T15:53:10;12.93;;;4.23;;
289;SDS011;13193;48.874;9.086;2022-11-15T15:55:37;10.73;;;3.33;;
289;SDS011;13193;48.874;9.086;2022-11-15T15:58:03;7.20;;;3.17;;
289;SDS011;13193;48.874;9.086;2022-11-15T16:00:30;8.93;;;3.37;;
289;SDS011;13193;48.874;9.086;2022-11-15T16:02:58;8.27;;;3.37;;
289;SDS011;13193;48.874;9.086;2022-11-15T16:05:23;6.27;;;3.17;;
289;SDS011;13193;48.874;9.086;2022-11-15T16:07:51;12.13;;;3.37;;
289;SDS011;13193;48.874;9.086;2022-11-15T16:10:19;12.97;;;3.80;;
289;SDS011;13193;48.874;9.086;2022-11-15T16:12:47;7.33;;;3.47;;
289;SDS011;13193;48.874;9.086;2022-11-15T16:15:13;11.43;;;3.33;;
289;SDS011;13193;48.874;9.086;2022-11-15T16:17:40;7.50;;;3.43;;
289;SDS011;13193;48.874;9.086;2022-11-15T16:20:15;8.80;;;4.03;;
289;SDS011;13193;48.874;9.086;2022-11-15T16:22:51;5.47;;;2.90;;
289;SDS011;13193;48.874;9.086;2022-11-15T16:25:17;12.30;;;3.67;;
289;SDS011;13193;48.874;9.086;2022-11-15T16:27:42;8.57;;;3.90;;
289;SDS011;13193;48.874;9.086;2022-11-15T16:30:17;17.27;;;4.23;;
289;SDS011;13193;48.874;9.086;2022-11-15T16:32:44;10.00;;;3.97;;
289;SDS011;13193;48.874;9.086;2022-11-15T16:35:10;13.83;;;5.23;;
289;SDS011;13193;48.874;9.086;2022-11-15T16:37:40;6.97;;;3.60;;
289;SDS011;13193;48.874;9.086;2022-11-15T16:42:37;9.93;;;4.17;;
289;SDS011;13193;48.874;9.086;2022-11-15T16:45:03;7.77;;;4.33;;
289;SDS011;13193;48.874;9.086;2022-11-15T16:47:29;8.83;;;3.27;;
289;SDS011;13193;48.874;9.086;2022-11-15T16:49:55;6.33;;;3.17;;
289;SDS011;13193;48.874;9.086;2022-11-15T16:52:20;6.90;;;3.53;;
289;SDS011;13193;48.874;9.086;2022-11-15T16:54:46;7.17;;;3.50;;
289;SDS011;13193;48.874;9.086;2022-11-15T16:57:11;5.10;;;3.17;;
289;SDS011;13193;48.874;9.086;2022-11-15T16:59:37;10.17;;;4.07;;
289;SDS011;13193;48.874;9.086;2022-11-15T17:02:02;4.30;;;2.73;;
289;SDS011;13193;48.874;9.086;2022-11-15T17:04:28;16.00;;;3.87;;
289;SDS011;13193;48.874;9.086;2022-11-15T17:06:57;9.00;;;3.03;;
289;SDS011;13193;48.874;9.086;2022-11-15T17:09:23;9.60;;;4.23;;
289;SDS011;13193;48.874;9.086;2022-11-15T17:11:49;11.30;;;3.83;;
289;SDS011;13193;48.874;9.086;2022-11-15T17:14:15;11.03;;;4.07;;
289;SDS011;13193;48.874;9.086;2022-11-15T17:16:41;5.37;;;3.70;;